This is the latest recevied weather packets stored in our database for station/object KA3WVU. If no packets are shown the sender has not sent any weather packets the latest 10 day(s).
| Time | Temp. | Humidity | Pressure | Rain* | Wind** | Luminosity | Snow |
|---|---|---|---|---|---|---|---|
| 1777844034 | 10.56° C | 44% | 1012.3 hPa | 0 mm | - | 81 W/m² | - |
| 1777843730 | 11.11° C | 43% | 1012.1 hPa | 0 mm | - | 99 W/m² | - |
| 1777843428 | 11.11° C | 44% | 1012.3 hPa | 0 mm | - | 110 W/m² | - |
| 1777843125 | 10.56° C | 46% | 1012.1 hPa | 0 mm | - | 100 W/m² | - |
| 1777842822 | 10.56° C | 43% | 1011.9 hPa | 0 mm | - | 81 W/m² | - |
| 1777842517 | 10.56° C | 44% | 1012.1 hPa | 0 mm | - | 78 W/m² | - |
| 1777842214 | 11.11° C | 42% | 1012.1 hPa | 0 mm | - | 73 W/m² | - |
| 1777841909 | 11.67° C | 41% | 1012.1 hPa | 0 mm | - | 145 W/m² | - |
| 1777841606 | 10.56° C | 43% | 1012.3 hPa | 0 mm | - | 69 W/m² | - |
| 1777841303 | 11.67° C | 43% | 1012.3 hPa | 0 mm | - | 219 W/m² | - |
| 1777841000 | 10.56° C | 44% | 1012.3 hPa | 0 mm | - | 126 W/m² | - |
| 1777840697 | 11.11° C | 42% | 1012.1 hPa | 0 mm | - | 131 W/m² | - |
| 1777840395 | 10.56° C | 43% | 1012.3 hPa | 0 mm | - | 139 W/m² | - |
| 1777840091 | 10° C | 44% | 1012.3 hPa | 0 mm | - | 113 W/m² | - |
| 1777839790 | 10° C | 44% | 1012.5 hPa | 0 mm | - | 104 W/m² | - |
| 1777839487 | 10.56° C | 45% | 1012.6 hPa | 0 mm | - | 110 W/m² | - |
| 1777839184 | 10° C | 43% | 1012.8 hPa | 0 mm | - | 105 W/m² | - |
| 1777838882 | 10.56° C | 43% | 1012.8 hPa | 0 mm | - | 105 W/m² | - |
| 1777838577 | 10.56° C | 44% | 1012.8 hPa | 0 mm | - | 145 W/m² | - |
| 1777838275 | 11.11° C | 44% | 1012.6 hPa | 0 mm | - | 106 W/m² | - |
| 1777837971 | 10.56° C | 45% | 1012.7 hPa | 0 mm | - | 449 W/m² | - |
| 1777837669 | 11.11° C | 42% | 1012.8 hPa | 0 mm | - | 107 W/m² | - |
| 1777837364 | 10.56° C | 43% | 1012.8 hPa | 0 mm | - | 494 W/m² | - |
| 1777837061 | 10° C | 44% | 1013 hPa | 0 mm | - | 153 W/m² | - |
| 1777836757 | 10° C | 43% | 1012.9 hPa | 0 mm | - | 130 W/m² | - |
* Rain latest hour (hover to see other rain measurements)
** Current wind speed in m/s (hover to see current wind gust speed)